sensor_id;sensor_type;location;lat;lon;timestamp;temperature;humidity
29575;DHT22;16507;51.046;6.406;2023-12-04T00:00:47;0.30;99.90
29575;DHT22;16507;51.046;6.406;2023-12-04T00:03:13;0.30;99.90
29575;DHT22;16507;51.046;6.406;2023-12-04T00:05:42;0.30;99.90
29575;DHT22;16507;51.046;6.406;2023-12-04T00:08:08;0.30;99.90
29575;DHT22;16507;51.046;6.406;2023-12-04T00:10:33;0.30;99.90
29575;DHT22;16507;51.046;6.406;2023-12-04T00:12:59;0.20;99.90
29575;DHT22;16507;51.046;6.406;2023-12-04T00:15:24;0.20;99.90
29575;DHT22;16507;51.046;6.406;2023-12-04T00:17:50;0.20;99.90
29575;DHT22;16507;51.046;6.406;2023-12-04T00:20:16;0.20;99.90
29575;DHT22;16507;51.046;6.406;2023-12-04T00:22:42;0.10;99.90
29575;DHT22;16507;51.046;6.406;2023-12-04T00:25:07;0.10;99.90
29575;DHT22;16507;51.046;6.406;2023-12-04T00:27:33;0.20;99.90
29575;DHT22;16507;51.046;6.406;2023-12-04T00:29:59;0.20;99.90
29575;DHT22;16507;51.046;6.406;2023-12-04T00:32:24;0.20;99.90
29575;DHT22;16507;51.046;6.406;2023-12-04T00:34:50;0.20;99.90
29575;DHT22;16507;51.046;6.406;2023-12-04T00:37:16;0.10;99.90
29575;DHT22;16507;51.046;6.406;2023-12-04T00:39:41;0.10;99.90
29575;DHT22;16507;51.046;6.406;2023-12-04T00:42:07;0.00;99.90
29575;DHT22;16507;51.046;6.406;2023-12-04T00:44:33;0.00;99.90
29575;DHT22;16507;51.046;6.406;2023-12-04T00:46:59;0.00;99.90
29575;DHT22;16507;51.046;6.406;2023-12-04T00:49:24;0.00;99.90
29575;DHT22;16507;51.046;6.406;2023-12-04T00:51:50;-0.10;99.90
29575;DHT22;16507;51.046;6.406;2023-12-04T00:54:16;-0.10;99.90
29575;DHT22;16507;51.046;6.406;2023-12-04T00:56:41;-0.10;99.90
29575;DHT22;16507;51.046;6.406;2023-12-04T00:59:10;-0.10;99.90
29575;DHT22;16507;51.046;6.406;2023-12-04T01:01:36;-0.10;99.90
29575;DHT22;16507;51.046;6.406;2023-12-04T01:04:03;-0.10;99.90
29575;DHT22;16507;51.046;6.406;2023-12-04T01:06:28;-0.10;99.90
29575;DHT22;16507;51.046;6.406;2023-12-04T01:08:55;0.00;99.90
29575;DHT22;16507;51.046;6.406;2023-12-04T01:11:20;0.00;99.90
29575;DHT22;16507;51.046;6.406;2023-12-04T01:13:47;0.00;99.90
29575;DHT22;16507;51.046;6.406;2023-12-04T01:16:13;0.00;99.90
29575;DHT22;16507;51.046;6.406;2023-12-04T01:18:38;0.00;99.90
29575;DHT22;16507;51.046;6.406;2023-12-04T01:21:04;0.00;99.90
29575;DHT22;16507;51.046;6.406;2023-12-04T01:23:30;0.00;99.90
29575;DHT22;16507;51.046;6.406;2023-12-04T01:25:55;0.00;99.90
29575;DHT22;16507;51.046;6.406;2023-12-04T01:28:21;0.10;99.90
29575;DHT22;16507;51.046;6.406;2023-12-04T01:30:46;0.10;99.90
29575;DHT22;16507;51.046;6.406;2023-12-04T01:33:12;0.10;99.90
29575;DHT22;16507;51.046;6.406;2023-12-04T01:35:38;0.10;99.90
29575;DHT22;16507;51.046;6.406;2023-12-04T01:38:03;0.10;99.90
29575;DHT22;16507;51.046;6.406;2023-12-04T01:40:29;0.10;99.90
29575;DHT22;16507;51.046;6.406;2023-12-04T01:42:57;0.10;99.90
29575;DHT22;16507;51.046;6.406;2023-12-04T01:45:23;0.10;99.90
29575;DHT22;16507;51.046;6.406;2023-12-04T01:47:48;0.10;99.90
29575;DHT22;16507;51.046;6.406;2023-12-04T01:50:14;0.10;99.90
29575;DHT22;16507;51.046;6.406;2023-12-04T01:52:40;0.10;99.90
29575;DHT22;16507;51.046;6.406;2023-12-04T01:55:08;0.10;99.90
29575;DHT22;16507;51.046;6.406;2023-12-04T01:57:35;0.00;99.90
29575;DHT22;16507;51.046;6.406;2023-12-04T02:00:00;0.00;99.90
29575;DHT22;16507;51.046;6.406;2023-12-04T02:02:28;0.00;99.90
29575;DHT22;16507;51.046;6.406;2023-12-04T02:04:55;0.00;99.90
29575;DHT22;16507;51.046;6.406;2023-12-04T02:07:23;0.00;99.90
29575;DHT22;16507;51.046;6.406;2023-12-04T02:09:49;0.00;99.90
29575;DHT22;16507;51.046;6.406;2023-12-04T02:12:15;0.00;99.90
29575;DHT22;16507;51.046;6.406;2023-12-04T02:14:40;0.00;99.90
29575;DHT22;16507;51.046;6.406;2023-12-04T02:17:08;0.00;99.90
29575;DHT22;16507;51.046;6.406;2023-12-04T02:19:34;0.00;99.90
29575;DHT22;16507;51.046;6.406;2023-12-04T02:22:00;0.00;99.90
29575;DHT22;16507;51.046;6.406;2023-12-04T02:24:26;0.00;99.90
29575;DHT22;16507;51.046;6.406;2023-12-04T02:27:22;0.00;99.90
29575;DHT22;16507;51.046;6.406;2023-12-04T02:29:54;0.00;99.90
29575;DHT22;16507;51.046;6.406;2023-12-04T02:32:22;0.00;99.90
29575;DHT22;16507;51.046;6.406;2023-12-04T02:34:49;0.00;99.90
29575;DHT22;16507;51.046;6.406;2023-12-04T02:37:17;0.00;99.90
29575;DHT22;16507;51.046;6.406;2023-12-04T02:39:42;-0.10;99.90
29575;DHT22;16507;51.046;6.406;2023-12-04T02:42:09;-0.10;99.90
29575;DHT22;16507;51.046;6.406;2023-12-04T02:44:35;-0.10;99.90
29575;DHT22;16507;51.046;6.406;2023-12-04T02:47:00;-0.10;99.90
29575;DHT22;16507;51.046;6.406;2023-12-04T02:49:26;-0.10;99.90
29575;DHT22;16507;51.046;6.406;2023-12-04T02:51:51;-0.10;99.90
29575;DHT22;16507;51.046;6.406;2023-12-04T02:54:17;-0.10;99.90
29575;DHT22;16507;51.046;6.406;2023-12-04T02:56:43;-0.10;99.90
29575;DHT22;16507;51.046;6.406;2023-12-04T02:59:08;-0.10;99.90
29575;DHT22;16507;51.046;6.406;2023-12-04T03:01:34;-0.10;99.90
29575;DHT22;16507;51.046;6.406;2023-12-04T03:04:00;-0.10;75.50
29575;DHT22;16507;51.046;6.406;2023-12-04T03:06:25;-0.10;99.90
29575;DHT22;16507;51.046;6.406;2023-12-04T03:08:51;-0.20;99.90
29575;DHT22;16507;51.046;6.406;2023-12-04T03:11:17;-0.20;99.90
29575;DHT22;16507;51.046;6.406;2023-12-04T03:13:42;-0.20;99.90
29575;DHT22;16507;51.046;6.406;2023-12-04T03:16:18;-0.20;96.90
29575;DHT22;16507;51.046;6.406;2023-12-04T03:18:44;-0.20;96.10
29575;DHT22;16507;51.046;6.406;2023-12-04T03:21:10;-0.20;85.30
29575;DHT22;16507;51.046;6.406;2023-12-04T03:23:36;-0.20;60.10
29575;DHT22;16507;51.046;6.406;2023-12-04T03:26:02;-0.20;41.00
29575;DHT22;16507;51.046;6.406;2023-12-04T03:28:28;-0.20;52.30
29575;DHT22;16507;51.046;6.406;2023-12-04T03:30:53;-0.20;44.80
29575;DHT22;16507;51.046;6.406;2023-12-04T03:33:19;-0.20;61.80
29575;DHT22;16507;51.046;6.406;2023-12-04T03:35:45;-0.20;40.60
29575;DHT22;16507;51.046;6.406;2023-12-04T03:38:10;-0.20;44.70
29575;DHT22;16507;51.046;6.406;2023-12-04T03:40:36;-0.30;57.20
29575;DHT22;16507;51.046;6.406;2023-12-04T03:43:01;-0.30;57.50
29575;DHT22;16507;51.046;6.406;2023-12-04T03:45:27;-0.30;59.20
29575;DHT22;16507;51.046;6.406;2023-12-04T03:47:53;-0.30;43.30
29575;DHT22;16507;51.046;6.406;2023-12-04T03:50:18;-0.30;29.70
29575;DHT22;16507;51.046;6.406;2023-12-04T03:52:44;-0.30;63.20
29575;DHT22;16507;51.046;6.406;2023-12-04T03:55:10;-0.30;99.90
29575;DHT22;16507;51.046;6.406;2023-12-04T03:57:35;-0.30;75.60
29575;DHT22;16507;51.046;6.406;2023-12-04T04:00:01;-0.40;99.90
29575;DHT22;16507;51.046;6.406;2023-12-04T04:02:28;-0.40;99.90
29575;DHT22;16507;51.046;6.406;2023-12-04T04:04:54;-0.40;99.50
29575;DHT22;16507;51.046;6.406;2023-12-04T04:07:19;-0.40;24.80
29575;DHT22;16507;51.046;6.406;2023-12-04T04:09:45;-0.40;94.40
29575;DHT22;16507;51.046;6.406;2023-12-04T04:12:10;-0.40;92.20
29575;DHT22;16507;51.046;6.406;2023-12-04T04:14:37;-0.40;48.60
29575;DHT22;16507;51.046;6.406;2023-12-04T04:17:02;-0.40;99.90
29575;DHT22;16507;51.046;6.406;2023-12-04T04:19:29;-0.40;19.40
29575;DHT22;16507;51.046;6.406;2023-12-04T04:21:54;-0.40;1.00
29575;DHT22;16507;51.046;6.406;2023-12-04T04:24:20;-0.40;1.00
29575;DHT22;16507;51.046;6.406;2023-12-04T04:26:45;-0.40;1.00
29575;DHT22;16507;51.046;6.406;2023-12-04T04:29:11;-0.40;4.70
29575;DHT22;16507;51.046;6.406;2023-12-04T04:31:37;-0.40;1.00
29575;DHT22;16507;51.046;6.406;2023-12-04T04:34:02;-0.40;1.00
29575;DHT22;16507;51.046;6.406;2023-12-04T04:36:28;-0.40;1.00
29575;DHT22;16507;51.046;6.406;2023-12-04T04:38:54;-0.40;1.00
29575;DHT22;16507;51.046;6.406;2023-12-04T04:41:20;-0.40;1.00
29575;DHT22;16507;51.046;6.406;2023-12-04T04:43:45;-0.50;1.00
29575;DHT22;16507;51.046;6.406;2023-12-04T04:46:11;-0.50;1.00
29575;DHT22;16507;51.046;6.406;2023-12-04T04:48:37;-0.50;1.00
29575;DHT22;16507;51.046;6.406;2023-12-04T04:51:02;-0.40;1.00
29575;DHT22;16507;51.046;6.406;2023-12-04T04:53:28;-0.40;1.00
29575;DHT22;16507;51.046;6.406;2023-12-04T04:55:54;-0.40;1.00
29575;DHT22;16507;51.046;6.406;2023-12-04T04:58:19;-0.40;1.00
29575;DHT22;16507;51.046;6.406;2023-12-04T05:00:46;-0.40;1.00
29575;DHT22;16507;51.046;6.406;2023-12-04T05:03:12;-0.40;1.00
29575;DHT22;16507;51.046;6.406;2023-12-04T05:05:38;-0.40;1.00
29575;DHT22;16507;51.046;6.406;2023-12-04T05:08:04;-0.50;1.00
29575;DHT22;16507;51.046;6.406;2023-12-04T05:10:29;-0.50;1.00
29575;DHT22;16507;51.046;6.406;2023-12-04T05:12:55;-0.50;1.00
29575;DHT22;16507;51.046;6.406;2023-12-04T05:15:21;-0.40;1.00
29575;DHT22;16507;51.046;6.406;2023-12-04T05:17:46;-0.40;1.00
29575;DHT22;16507;51.046;6.406;2023-12-04T05:20:12;-0.40;1.00
29575;DHT22;16507;51.046;6.406;2023-12-04T05:22:38;-0.40;1.00
29575;DHT22;16507;51.046;6.406;2023-12-04T05:25:04;-0.30;1.00
29575;DHT22;16507;51.046;6.406;2023-12-04T05:27:29;-0.30;1.00
29575;DHT22;16507;51.046;6.406;2023-12-04T05:29:55;-0.30;1.00
29575;DHT22;16507;51.046;6.406;2023-12-04T05:32:21;-0.30;1.00
29575;DHT22;16507;51.046;6.406;2023-12-04T05:34:46;-0.20;1.00
29575;DHT22;16507;51.046;6.406;2023-12-04T05:37:12;-0.20;1.00
29575;DHT22;16507;51.046;6.406;2023-12-04T05:39:37;-0.20;1.00
29575;DHT22;16507;51.046;6.406;2023-12-04T05:42:03;-0.20;1.00
29575;DHT22;16507;51.046;6.406;2023-12-04T05:44:29;-0.10;1.00
29575;DHT22;16507;51.046;6.406;2023-12-04T05:46:54;-0.10;1.00
29575;DHT22;16507;51.046;6.406;2023-12-04T05:49:20;-0.10;1.00
29575;DHT22;16507;51.046;6.406;2023-12-04T05:51:46;-0.10;1.00
29575;DHT22;16507;51.046;6.406;2023-12-04T05:54:11;-0.10;99.90
29575;DHT22;16507;51.046;6.406;2023-12-04T05:56:37;-0.10;1.00
29575;DHT22;16507;51.046;6.406;2023-12-04T05:59:02;-0.10;1.00
29575;DHT22;16507;51.046;6.406;2023-12-04T06:01:28;-0.10;99.90
29575;DHT22;16507;51.046;6.406;2023-12-04T06:03:54;-0.10;99.90
29575;DHT22;16507;51.046;6.406;2023-12-04T06:06:19;-0.10;99.90
29575;DHT22;16507;51.046;6.406;2023-12-04T06:08:45;-0.10;99.90
29575;DHT22;16507;51.046;6.406;2023-12-04T06:11:11;-0.10;99.90
29575;DHT22;16507;51.046;6.406;2023-12-04T06:13:36;-0.10;99.90
29575;DHT22;16507;51.046;6.406;2023-12-04T06:16:02;-0.10;99.90
29575;DHT22;16507;51.046;6.406;2023-12-04T06:18:27;0.00;99.90
29575;DHT22;16507;51.046;6.406;2023-12-04T06:20:53;0.00;99.90
29575;DHT22;16507;51.046;6.406;2023-12-04T06:23:19;0.00;1.00
29575;DHT22;16507;51.046;6.406;2023-12-04T06:25:45;0.00;1.40
29575;DHT22;16507;51.046;6.406;2023-12-04T06:28:11;0.00;4.20
29575;DHT22;16507;51.046;6.406;2023-12-04T06:30:36;0.00;99.90
29575;DHT22;16507;51.046;6.406;2023-12-04T06:33:03;0.00;99.90
29575;DHT22;16507;51.046;6.406;2023-12-04T06:35:28;0.00;99.90
29575;DHT22;16507;51.046;6.406;2023-12-04T06:38:05;0.00;99.90
29575;DHT22;16507;51.046;6.406;2023-12-04T06:40:31;0.00;99.90
29575;DHT22;16507;51.046;6.406;2023-12-04T06:42:57;0.10;1.00
29575;DHT22;16507;51.046;6.406;2023-12-04T06:45:24;0.10;1.00
29575;DHT22;16507;51.046;6.406;2023-12-04T06:47:50;0.10;1.00
29575;DHT22;16507;51.046;6.406;2023-12-04T06:50:17;0.10;1.00
29575;DHT22;16507;51.046;6.406;2023-12-04T06:52:43;0.10;1.00
29575;DHT22;16507;51.046;6.406;2023-12-04T06:55:09;0.10;1.00
29575;DHT22;16507;51.046;6.406;2023-12-04T06:57:34;0.10;1.00
29575;DHT22;16507;51.046;6.406;2023-12-04T07:00:00;0.10;1.00
29575;DHT22;16507;51.046;6.406;2023-12-04T07:02:26;0.10;14.70
29575;DHT22;16507;51.046;6.406;2023-12-04T07:04:52;0.10;1.00
29575;DHT22;16507;51.046;6.406;2023-12-04T07:07:17;0.20;1.00
29575;DHT22;16507;51.046;6.406;2023-12-04T07:09:43;0.20;99.90
29575;DHT22;16507;51.046;6.406;2023-12-04T07:12:09;0.20;1.00
29575;DHT22;16507;51.046;6.406;2023-12-04T07:14:34;0.20;1.00
29575;DHT22;16507;51.046;6.406;2023-12-04T07:17:00;0.20;1.00
29575;DHT22;16507;51.046;6.406;2023-12-04T07:19:26;0.20;1.00
29575;DHT22;16507;51.046;6.406;2023-12-04T07:21:52;0.20;1.00
29575;DHT22;16507;51.046;6.406;2023-12-04T07:24:18;0.20;1.00
29575;DHT22;16507;51.046;6.406;2023-12-04T07:26:44;0.20;1.00
29575;DHT22;16507;51.046;6.406;2023-12-04T07:29:09;0.20;1.40
29575;DHT22;16507;51.046;6.406;2023-12-04T07:31:35;0.10;99.90
29575;DHT22;16507;51.046;6.406;2023-12-04T07:34:01;0.10;99.90
29575;DHT22;16507;51.046;6.406;2023-12-04T07:36:27;0.10;99.90
29575;DHT22;16507;51.046;6.406;2023-12-04T07:38:53;0.10;1.00
29575;DHT22;16507;51.046;6.406;2023-12-04T07:41:19;0.10;99.90
29575;DHT22;16507;51.046;6.406;2023-12-04T07:43:45;0.10;99.90
29575;DHT22;16507;51.046;6.406;2023-12-04T07:46:11;0.10;99.90
29575;DHT22;16507;51.046;6.406;2023-12-04T07:48:39;0.10;1.00
29575;DHT22;16507;51.046;6.406;2023-12-04T07:51:06;0.10;99.90
29575;DHT22;16507;51.046;6.406;2023-12-04T07:53:32;0.00;99.90
29575;DHT22;16507;51.046;6.406;2023-12-04T07:56:01;0.10;1.00
29575;DHT22;16507;51.046;6.406;2023-12-04T07:58:28;0.10;1.00
29575;DHT22;16507;51.046;6.406;2023-12-04T08:00:54;0.10;1.00
29575;DHT22;16507;51.046;6.406;2023-12-04T08:03:19;0.10;1.00
29575;DHT22;16507;51.046;6.406;2023-12-04T08:05:48;0.10;1.00
29575;DHT22;16507;51.046;6.406;2023-12-04T08:08:13;0.20;1.00
29575;DHT22;16507;51.046;6.406;2023-12-04T08:10:40;0.20;1.00
29575;DHT22;16507;51.046;6.406;2023-12-04T08:13:05;0.20;1.00
29575;DHT22;16507;51.046;6.406;2023-12-04T08:15:31;0.10;1.00
29575;DHT22;16507;51.046;6.406;2023-12-04T08:17:56;0.20;1.00
29575;DHT22;16507;51.046;6.406;2023-12-04T08:20:23;0.20;1.00
29575;DHT22;16507;51.046;6.406;2023-12-04T08:22:49;0.20;1.00
29575;DHT22;16507;51.046;6.406;2023-12-04T08:25:14;0.20;99.90
29575;DHT22;16507;51.046;6.406;2023-12-04T08:27:40;0.30;1.00
29575;DHT22;16507;51.046;6.406;2023-12-04T08:30:06;0.30;1.00
29575;DHT22;16507;51.046;6.406;2023-12-04T08:32:32;0.30;1.00
29575;DHT22;16507;51.046;6.406;2023-12-04T08:34:58;0.30;1.00
29575;DHT22;16507;51.046;6.406;2023-12-04T08:37:23;0.40;1.00
29575;DHT22;16507;51.046;6.406;2023-12-04T08:39:49;0.40;1.00
29575;DHT22;16507;51.046;6.406;2023-12-04T08:42:14;0.40;1.00
29575;DHT22;16507;51.046;6.406;2023-12-04T08:44:40;0.40;1.00
29575;DHT22;16507;51.046;6.406;2023-12-04T08:47:06;0.50;1.00
29575;DHT22;16507;51.046;6.406;2023-12-04T08:49:32;0.50;1.00
29575;DHT22;16507;51.046;6.406;2023-12-04T08:51:58;0.50;1.00
29575;DHT22;16507;51.046;6.406;2023-12-04T08:54:24;0.50;99.90
29575;DHT22;16507;51.046;6.406;2023-12-04T08:56:50;0.50;99.90
29575;DHT22;16507;51.046;6.406;2023-12-04T08:59:16;0.50;1.00
29575;DHT22;16507;51.046;6.406;2023-12-04T09:01:42;0.50;1.00
29575;DHT22;16507;51.046;6.406;2023-12-04T09:04:09;0.50;1.00
29575;DHT22;16507;51.046;6.406;2023-12-04T09:06:35;0.60;99.90
29575;DHT22;16507;51.046;6.406;2023-12-04T09:09:01;0.60;99.90
29575;DHT22;16507;51.046;6.406;2023-12-04T09:11:28;0.60;1.00
29575;DHT22;16507;51.046;6.406;2023-12-04T09:13:54;0.70;21.40
29575;DHT22;16507;51.046;6.406;2023-12-04T09:16:19;0.70;22.80
29575;DHT22;16507;51.046;6.406;2023-12-04T09:18:45;0.70;1.00
29575;DHT22;16507;51.046;6.406;2023-12-04T09:21:11;0.80;1.00
29575;DHT22;16507;51.046;6.406;2023-12-04T09:23:37;0.80;1.00
29575;DHT22;16507;51.046;6.406;2023-12-04T09:26:03;0.80;1.00
29575;DHT22;16507;51.046;6.406;2023-12-04T09:28:28;0.80;1.00
29575;DHT22;16507;51.046;6.406;2023-12-04T09:30:54;0.80;1.00
29575;DHT22;16507;51.046;6.406;2023-12-04T09:33:20;0.80;1.00
29575;DHT22;16507;51.046;6.406;2023-12-04T09:35:45;0.80;1.00
29575;DHT22;16507;51.046;6.406;2023-12-04T09:38:11;0.80;1.00
29575;DHT22;16507;51.046;6.406;2023-12-04T09:40:37;0.80;1.00
29575;DHT22;16507;51.046;6.406;2023-12-04T09:43:03;0.90;1.00
29575;DHT22;16507;51.046;6.406;2023-12-04T09:45:32;0.90;1.00
29575;DHT22;16507;51.046;6.406;2023-12-04T09:47:58;0.90;1.00
29575;DHT22;16507;51.046;6.406;2023-12-04T09:50:24;0.90;1.00
29575;DHT22;16507;51.046;6.406;2023-12-04T09:52:51;1.00;1.00
29575;DHT22;16507;51.046;6.406;2023-12-04T09:55:18;1.00;1.00
29575;DHT22;16507;51.046;6.406;2023-12-04T09:57:45;1.00;1.00
29575;DHT22;16507;51.046;6.406;2023-12-04T10:00:15;1.00;1.00
29575;DHT22;16507;51.046;6.406;2023-12-04T10:02:42;1.00;1.00
29575;DHT22;16507;51.046;6.406;2023-12-04T10:05:08;1.00;1.00
29575;DHT22;16507;51.046;6.406;2023-12-04T10:07:35;1.00;1.00
29575;DHT22;16507;51.046;6.406;2023-12-04T10:10:02;1.10;1.00
29575;DHT22;16507;51.046;6.406;2023-12-04T10:12:31;1.10;99.90
29575;DHT22;16507;51.046;6.406;2023-12-04T10:15:07;1.10;99.90
29575;DHT22;16507;51.046;6.406;2023-12-04T10:17:34;1.10;1.00
29575;DHT22;16507;51.046;6.406;2023-12-04T10:20:11;1.10;99.90
29575;DHT22;16507;51.046;6.406;2023-12-04T10:22:39;1.10;99.90
29575;DHT22;16507;51.046;6.406;2023-12-04T10:25:14;1.10;1.00
29575;DHT22;16507;51.046;6.406;2023-12-04T10:27:41;1.10;99.90
29575;DHT22;16507;51.046;6.406;2023-12-04T10:30:07;1.10;99.90
29575;DHT22;16507;51.046;6.406;2023-12-04T10:32:38;1.10;99.90
29575;DHT22;16507;51.046;6.406;2023-12-04T10:35:05;1.10;99.90
29575;DHT22;16507;51.046;6.406;2023-12-04T10:37:36;1.10;99.90
29575;DHT22;16507;51.046;6.406;2023-12-04T10:40:02;1.20;1.00
29575;DHT22;16507;51.046;6.406;2023-12-04T10:42:29;1.20;1.00
29575;DHT22;16507;51.046;6.406;2023-12-04T10:44:56;1.20;1.00
29575;DHT22;16507;51.046;6.406;2023-12-04T10:47:27;1.20;1.00
29575;DHT22;16507;51.046;6.406;2023-12-04T10:49:53;1.20;1.00
29575;DHT22;16507;51.046;6.406;2023-12-04T10:52:20;1.20;1.00
29575;DHT22;16507;51.046;6.406;2023-12-04T10:54:47;1.20;1.00
29575;DHT22;16507;51.046;6.406;2023-12-04T10:57:19;1.20;1.00
29575;DHT22;16507;51.046;6.406;2023-12-04T10:59:46;1.20;25.30
29575;DHT22;16507;51.046;6.406;2023-12-04T11:02:18;1.30;99.90
29575;DHT22;16507;51.046;6.406;2023-12-04T11:04:46;1.30;1.00
29575;DHT22;16507;51.046;6.406;2023-12-04T11:07:13;1.40;1.00
29575;DHT22;16507;51.046;6.406;2023-12-04T11:09:40;1.30;99.90
29575;DHT22;16507;51.046;6.406;2023-12-04T11:12:10;1.40;1.00
29575;DHT22;16507;51.046;6.406;2023-12-04T11:14:45;1.40;1.00
29575;DHT22;16507;51.046;6.406;2023-12-04T11:17:14;1.40;99.90
29575;DHT22;16507;51.046;6.406;2023-12-04T11:22:17;1.30;1.00
29575;DHT22;16507;51.046;6.406;2023-12-04T11:24:46;1.20;1.00
29575;DHT22;16507;51.046;6.406;2023-12-04T11:27:13;1.20;99.90
29575;DHT22;16507;51.046;6.406;2023-12-04T11:29:39;1.20;1.00
29575;DHT22;16507;51.046;6.406;2023-12-04T11:32:06;1.20;99.90
29575;DHT22;16507;51.046;6.406;2023-12-04T11:34:32;1.30;1.00
29575;DHT22;16507;51.046;6.406;2023-12-04T11:37:00;1.30;1.00
29575;DHT22;16507;51.046;6.406;2023-12-04T11:39:28;1.20;1.00
29575;DHT22;16507;51.046;6.406;2023-12-04T11:41:53;1.20;1.00
29575;DHT22;16507;51.046;6.406;2023-12-04T11:44:19;1.20;82.10
29575;DHT22;16507;51.046;6.406;2023-12-04T11:46:56;1.20;99.90
29575;DHT22;16507;51.046;6.406;2023-12-04T11:51:51;1.10;99.90
29575;DHT22;16507;51.046;6.406;2023-12-04T11:54:19;1.10;99.90
29575;DHT22;16507;51.046;6.406;2023-12-04T11:57:21;1.10;99.90
29575;DHT22;16507;51.046;6.406;2023-12-04T11:59:47;1.00;99.90
29575;DHT22;16507;51.046;6.406;2023-12-04T12:02:13;1.00;99.90
29575;DHT22;16507;51.046;6.406;2023-12-04T12:04:40;1.00;99.90
29575;DHT22;16507;51.046;6.406;2023-12-04T12:07:06;0.90;99.90
29575;DHT22;16507;51.046;6.406;2023-12-04T12:09:33;0.90;99.90
29575;DHT22;16507;51.046;6.406;2023-12-04T12:12:02;0.90;99.90
29575;DHT22;16507;51.046;6.406;2023-12-04T12:14:29;0.80;99.90
29575;DHT22;16507;51.046;6.406;2023-12-04T12:16:56;0.80;99.90
29575;DHT22;16507;51.046;6.406;2023-12-04T12:19:22;0.90;99.90
29575;DHT22;16507;51.046;6.406;2023-12-04T12:21:48;0.90;99.90
29575;DHT22;16507;51.046;6.406;2023-12-04T12:24:17;0.80;99.90
29575;DHT22;16507;51.046;6.406;2023-12-04T12:26:42;0.90;99.90
29575;DHT22;16507;51.046;6.406;2023-12-04T12:29:11;0.80;99.90
29575;DHT22;16507;51.046;6.406;2023-12-04T12:31:37;0.80;99.90
29575;DHT22;16507;51.046;6.406;2023-12-04T12:34:03;0.90;99.90
29575;DHT22;16507;51.046;6.406;2023-12-04T12:36:29;0.90;99.90
29575;DHT22;16507;51.046;6.406;2023-12-04T12:38:56;1.00;99.90
29575;DHT22;16507;51.046;6.406;2023-12-04T12:41:21;1.00;99.90
29575;DHT22;16507;51.046;6.406;2023-12-04T12:43:51;1.10;99.90
29575;DHT22;16507;51.046;6.406;2023-12-04T12:46:17;1.10;99.90
29575;DHT22;16507;51.046;6.406;2023-12-04T12:48:43;1.10;99.90
29575;DHT22;16507;51.046;6.406;2023-12-04T12:51:09;1.10;99.90
29575;DHT22;16507;51.046;6.406;2023-12-04T12:53:36;1.10;99.90
29575;DHT22;16507;51.046;6.406;2023-12-04T12:56:03;1.00;99.90
29575;DHT22;16507;51.046;6.406;2023-12-04T12:58:29;1.00;99.90
29575;DHT22;16507;51.046;6.406;2023-12-04T13:00:55;1.00;99.90
29575;DHT22;16507;51.046;6.406;2023-12-04T13:03:21;1.00;99.90
29575;DHT22;16507;51.046;6.406;2023-12-04T13:05:50;1.00;99.90
29575;DHT22;16507;51.046;6.406;2023-12-04T13:08:15;1.10;99.90
29575;DHT22;16507;51.046;6.406;2023-12-04T13:10:41;1.20;99.90
29575;DHT22;16507;51.046;6.406;2023-12-04T13:13:11;1.10;99.90
29575;DHT22;16507;51.046;6.406;2023-12-04T13:15:36;1.20;99.90
29575;DHT22;16507;51.046;6.406;2023-12-04T13:18:03;1.20;99.90
29575;DHT22;16507;51.046;6.406;2023-12-04T13:20:29;1.20;99.90
29575;DHT22;16507;51.046;6.406;2023-12-04T13:22:54;1.20;99.90
29575;DHT22;16507;51.046;6.406;2023-12-04T13:25:20;1.20;99.90
29575;DHT22;16507;51.046;6.406;2023-12-04T13:27:46;1.20;99.90
29575;DHT22;16507;51.046;6.406;2023-12-04T13:30:12;1.20;99.90
29575;DHT22;16507;51.046;6.406;2023-12-04T13:32:38;1.20;99.90
29575;DHT22;16507;51.046;6.406;2023-12-04T13:35:04;1.20;99.90
29575;DHT22;16507;51.046;6.406;2023-12-04T13:37:34;1.30;99.90
29575;DHT22;16507;51.046;6.406;2023-12-04T13:40:02;1.30;99.90
29575;DHT22;16507;51.046;6.406;2023-12-04T13:42:38;1.30;99.90
29575;DHT22;16507;51.046;6.406;2023-12-04T13:45:22;1.30;99.90
29575;DHT22;16507;51.046;6.406;2023-12-04T13:47:48;1.40;99.90
29575;DHT22;16507;51.046;6.406;2023-12-04T13:50:14;1.50;99.90
29575;DHT22;16507;51.046;6.406;2023-12-04T13:52:40;1.40;99.90
29575;DHT22;16507;51.046;6.406;2023-12-04T13:55:09;1.30;99.90
29575;DHT22;16507;51.046;6.406;2023-12-04T13:57:44;1.30;99.90
29575;DHT22;16507;51.046;6.406;2023-12-04T14:00:28;1.20;99.90
29575;DHT22;16507;51.046;6.406;2023-12-04T14:02:54;1.30;99.90
29575;DHT22;16507;51.046;6.406;2023-12-04T14:05:29;1.20;99.90
29575;DHT22;16507;51.046;6.406;2023-12-04T14:07:55;1.20;99.90
29575;DHT22;16507;51.046;6.406;2023-12-04T14:10:22;1.20;99.90
29575;DHT22;16507;51.046;6.406;2023-12-04T14:12:47;1.20;99.90
29575;DHT22;16507;51.046;6.406;2023-12-04T14:15:13;1.10;99.90
29575;DHT22;16507;51.046;6.406;2023-12-04T14:17:39;1.20;99.90
29575;DHT22;16507;51.046;6.406;2023-12-04T14:20:06;1.20;99.90
29575;DHT22;16507;51.046;6.406;2023-12-04T14:22:40;1.20;99.90
29575;DHT22;16507;51.046;6.406;2023-12-04T14:25:06;1.20;99.90
29575;DHT22;16507;51.046;6.406;2023-12-04T14:27:32;1.20;99.90
29575;DHT22;16507;51.046;6.406;2023-12-04T14:29:58;1.20;99.90
29575;DHT22;16507;51.046;6.406;2023-12-04T14:32:24;1.20;99.90
29575;DHT22;16507;51.046;6.406;2023-12-04T14:34:49;1.20;99.90
29575;DHT22;16507;51.046;6.406;2023-12-04T14:37:18;1.20;99.90
29575;DHT22;16507;51.046;6.406;2023-12-04T14:39:43;1.20;99.90
29575;DHT22;16507;51.046;6.406;2023-12-04T14:42:10;1.20;99.90
29575;DHT22;16507;51.046;6.406;2023-12-04T14:44:36;1.20;99.90
29575;DHT22;16507;51.046;6.406;2023-12-04T14:47:02;1.20;99.90
29575;DHT22;16507;51.046;6.406;2023-12-04T14:49:29;1.20;99.90
29575;DHT22;16507;51.046;6.406;2023-12-04T14:51:55;1.10;99.90
29575;DHT22;16507;51.046;6.406;2023-12-04T14:54:21;1.10;99.90
29575;DHT22;16507;51.046;6.406;2023-12-04T14:56:47;1.00;99.90
29575;DHT22;16507;51.046;6.406;2023-12-04T14:59:32;1.00;99.90
29575;DHT22;16507;51.046;6.406;2023-12-04T15:02:16;0.90;99.90
29575;DHT22;16507;51.046;6.406;2023-12-04T15:05:05;0.80;99.90
29575;DHT22;16507;51.046;6.406;2023-12-04T15:08:08;0.80;99.90
29575;DHT22;16507;51.046;6.406;2023-12-04T15:10:52;0.80;99.90
29575;DHT22;16507;51.046;6.406;2023-12-04T15:13:37;0.80;99.90
29575;DHT22;16507;51.046;6.406;2023-12-04T15:16:16;0.90;99.90
29575;DHT22;16507;51.046;6.406;2023-12-04T15:18:51;0.80;99.90
29575;DHT22;16507;51.046;6.406;2023-12-04T15:21:26;0.90;99.90
29575;DHT22;16507;51.046;6.406;2023-12-04T15:23:51;0.80;99.90
29575;DHT22;16507;51.046;6.406;2023-12-04T15:26:17;0.80;99.90
29575;DHT22;16507;51.046;6.406;2023-12-04T15:28:43;0.90;99.90
29575;DHT22;16507;51.046;6.406;2023-12-04T15:31:09;0.80;99.90
29575;DHT22;16507;51.046;6.406;2023-12-04T15:33:35;0.80;99.90
29575;DHT22;16507;51.046;6.406;2023-12-04T15:36:00;0.90;99.90
29575;DHT22;16507;51.046;6.406;2023-12-04T15:38:26;0.80;99.90
29575;DHT22;16507;51.046;6.406;2023-12-04T15:40:52;0.80;99.90
29575;DHT22;16507;51.046;6.406;2023-12-04T15:43:17;0.90;99.90
29575;DHT22;16507;51.046;6.406;2023-12-04T15:45:43;0.90;99.90
29575;DHT22;16507;51.046;6.406;2023-12-04T15:48:09;0.90;99.90
29575;DHT22;16507;51.046;6.406;2023-12-04T15:50:36;0.90;99.90